Time;durP1;ratioP1;P1;durP2;ratioP2;P2;SDS_P1;SDS_P2;PMS_P1;PMS_P2;Temp;Humidity;BMP_temperature;BMP_pressure;BME280_temperature;BME280_humidity;BME280_pressure;Samples;Min_cycle;Max_cycle;Signal;HPM_P1;HPM_P2
2023/08/27 00:00:52;;;;;;;35.92;23.42;;;26.50;85.50;;;;;;5090975;28;20043;-68
2023/08/27 00:03:57;;;;;;;50.00;23.23;;;26.50;85.60;;;;;;5090753;28;20043;-67
2023/08/27 00:07:01;;;;;;;52.17;24.05;;;26.50;85.90;;;;;;5090672;28;20051;-68
2023/08/27 00:10:06;;;;;;;35.78;22.85;;;26.40;85.80;;;;;;5090501;28;20043;-67
2023/08/27 00:13:10;;;;;;;40.35;23.52;;;26.50;85.80;;;;;;5089505;28;20062;-67
2023/08/27 00:16:16;;;;;;;40.45;22.85;;;26.50;85.90;;;;;;5090390;28;20047;-67
2023/08/27 00:19:23;;;;;;;37.05;22.45;;;26.50;85.80;;;;;;5090787;28;20047;-68
2023/08/27 00:22:27;;;;;;;37.20;22.50;;;26.40;86.10;;;;;;5094615;28;20043;-67
2023/08/27 00:25:31;;;;;;;35.42;22.58;;;26.30;86.50;;;;;;5094149;28;20051;-67
2023/08/27 00:28:35;;;;;;;33.67;22.73;;;26.20;87.00;;;;;;5094208;28;20070;-67
2023/08/27 00:31:39;;;;;;;36.10;22.67;;;26.10;87.30;;;;;;5093235;28;20043;-67
2023/08/27 00:34:43;;;;;;;37.35;22.70;;;26.00;87.40;;;;;;5093562;28;20051;-67
2023/08/27 00:37:48;;;;;;;31.45;20.90;;;25.90;87.90;;;;;;5093787;28;20047;-67
2023/08/27 00:40:52;;;;;;;30.42;21.92;;;25.90;87.90;;;;;;5094310;28;20035;-67
2023/08/27 00:43:56;;;;;;;33.08;22.05;;;25.90;88.20;;;;;;5093149;28;20399;-67
2023/08/27 00:47:01;;;;;;;38.95;22.17;;;26.10;87.10;;;;;;5093335;28;20066;-67
2023/08/27 00:50:09;;;;;;;36.30;21.45;;;26.10;87.00;;;;;;5093187;28;20399;-67
2023/08/27 00:53:14;;;;;;;34.38;22.55;;;26.00;87.30;;;;;;5081971;28;20051;-67
2023/08/27 00:56:18;;;;;;;31.52;22.52;;;26.20;87.30;;;;;;5092840;28;20039;-67
2023/08/27 00:59:22;;;;;;;31.20;22.35;;;26.20;86.70;;;;;;5093005;28;20039;-67
2023/08/27 01:02:26;;;;;;;34.78;21.83;;;26.10;86.70;;;;;;5092745;28;20058;-68
2023/08/27 01:05:32;;;;;;;29.65;20.58;;;26.10;86.40;;;;;;5092497;28;20055;-68
2023/08/27 01:08:49;;;;;;;31.13;20.92;;;26.10;85.10;;;;;;5093529;28;20051;-68
2023/08/27 01:12:13;;;;;;;28.48;18.98;;;26.00;84.60;;;;;;5093049;28;20082;-67
2023/08/27 01:15:17;;;;;;;28.10;19.85;;;26.00;85.00;;;;;;5093556;28;20043;-68
2023/08/27 01:18:21;;;;;;;29.20;20.73;;;26.00;84.70;;;;;;5092616;28;20047;-68
2023/08/27 01:21:27;;;;;;;33.80;19.40;;;26.00;84.40;;;;;;5092713;28;20043;-68
2023/08/27 01:24:31;;;;;;;31.88;18.95;;;26.00;84.00;;;;;;5093474;28;20063;-68
2023/08/27 01:27:44;;;;;;;32.95;19.60;;;26.00;83.90;;;;;;5093387;28;20063;-68
2023/08/27 01:31:11;;;;;;;24.88;18.70;;;27.30;84.80;;;;;;5092406;28;20043;-68
2023/08/27 01:34:18;;;;;;;27.73;19.90;;;25.80;83.80;;;;;;5092226;28;20438;-68
2023/08/27 01:37:22;;;;;;;27.83;18.88;;;25.70;84.70;;;;;;5092393;28;20129;-68
2023/08/27 01:40:29;;;;;;;34.17;19.55;;;25.60;85.00;;;;;;5092557;28;20043;-68
2023/08/27 01:43:33;;;;;;;27.60;19.17;;;25.60;84.50;;;;;;5092825;28;20400;-68
2023/08/27 01:46:36;;;;;;;24.67;19.05;;;25.60;84.60;;;;;;5092577;28;20055;-68
2023/08/27 01:49:40;;;;;;;29.65;18.70;;;25.60;84.10;;;;;;5091924;28;20051;-68
2023/08/27 01:52:47;;;;;;;24.60;18.88;;;25.60;84.10;;;;;;5092267;28;20051;-68
2023/08/27 01:55:51;;;;;;;31.67;19.00;;;25.70;83.80;;;;;;5091717;28;20055;-68
2023/08/27 01:58:56;;;;;;;25.92;18.58;;;25.80;84.20;;;;;;5092173;28;20051;-68
2023/08/27 02:02:00;;;;;;;28.13;20.23;;;25.70;84.60;;;;;;5092625;28;20061;-68
2023/08/27 02:05:07;;;;;;;29.65;19.45;;;25.60;84.50;;;;;;5091671;28;20042;-68
2023/08/27 02:08:12;;;;;;;31.42;19.38;;;;;;;;;;5091598;28;20051;-68
2023/08/27 02:11:16;;;;;;;28.50;19.77;;;25.30;84.90;;;;;;5091686;28;20043;-69
2023/08/27 02:14:20;;;;;;;26.25;18.27;;;25.20;85.90;;;;;;5091516;28;20503;-68
2023/08/27 02:17:24;;;;;;;23.75;18.92;;;25.10;86.10;;;;;;5092352;28;20054;-68
2023/08/27 02:20:28;;;;;;;25.02;18.98;;;25.10;86.40;;;;;;5079780;28;20539;-69
2023/08/27 02:23:32;;;;;;;29.00;17.88;;;25.00;86.50;;;;;;5092272;28;20039;-67
2023/08/27 02:26:35;;;;;;;22.50;17.63;;;25.00;86.30;;;;;;5091402;28;20055;-67
2023/08/27 02:29:40;;;;;;;27.10;18.83;;;25.00;86.30;;;;;;5091503;28;20055;-68
2023/08/27 02:32:45;;;;;;;23.52;17.50;;;24.90;86.00;;;;;;5091204;28;20502;-68
2023/08/27 02:35:48;;;;;;;28.45;18.20;;;25.00;86.10;;;;;;5091135;28;20047;-67
2023/08/27 02:38:54;;;;;;;22.83;17.70;;;25.10;85.80;;;;;;5090992;28;20039;-68
2023/08/27 02:41:59;;;;;;;26.70;17.17;;;25.20;85.50;;;;;;5090982;28;20047;-68
2023/08/27 02:45:04;;;;;;;33.78;18.63;;;25.20;85.50;;;;;;5091801;28;20039;-68
2023/08/27 02:48:09;;;;;;;22.63;18.35;;;25.30;85.40;;;;;;5090696;28;20055;-68
2023/08/27 02:51:13;;;;;;;32.45;18.13;;;25.50;85.10;;;;;;5090967;28;20684;-68
2023/08/27 02:54:17;;;;;;;26.25;18.40;;;25.60;84.80;;;;;;5091778;28;20050;-66
2023/08/27 02:57:21;;;;;;;21.75;18.05;;;25.60;83.80;;;;;;5091577;28;20035;-67
2023/08/27 03:00:26;;;;;;;25.30;16.98;;;25.40;83.10;;;;;;5090658;28;20043;-66
2023/08/27 03:03:30;;;;;;;27.50;18.42;;;26.40;84.40;;;;;;5090503;28;20114;-66
2023/08/27 03:06:35;;;;;;;28.90;18.65;;;25.20;84.10;;;;;;5090595;28;20046;-66
2023/08/27 03:09:38;;;;;;;26.77;17.77;;;25.10;84.50;;;;;;5091508;28;20063;-69
2023/08/27 03:12:42;;;;;;;22.20;17.00;;;24.60;84.30;;;;;;5090577;28;20058;-66
2023/08/27 03:15:47;;;;;;;21.42;15.68;;;24.60;83.70;;;;;;5091645;28;20051;-67
2023/08/27 03:18:51;;;;;;;23.20;16.30;;;24.70;84.20;;;;;;5091456;28;20047;-68
2023/08/27 03:21:55;;;;;;;23.67;16.30;;;25.20;82.00;;;;;;5091445;28;20044;-67
2023/08/27 03:25:01;;;;;;;18.83;15.95;;;24.90;82.40;;;;;;5091211;28;20043;-67
2023/08/27 03:28:05;;;;;;;26.92;16.05;;;24.80;82.40;;;;;;5091381;28;20400;-67
2023/08/27 03:31:10;;;;;;;21.63;15.55;;;24.90;82.20;;;;;;5090590;28;20043;-68
2023/08/27 03:34:14;;;;;;;19.63;15.98;;;24.90;82.90;;;;;;5091299;28;20047;-68
2023/08/27 03:37:20;;;;;;;21.88;16.13;;;24.80;82.00;;;;;;5090418;28;20039;-68
2023/08/27 03:40:24;;;;;;;22.45;15.90;;;24.70;82.60;;;;;;5090305;28;20039;-68
2023/08/27 03:43:27;;;;;;;23.25;15.80;;;24.70;83.20;;;;;;5090359;28;20597;-68
2023/08/27 03:46:31;;;;;;;48.60;30.15;;;24.60;83.10;;;;;;5090198;28;20101;-68
2023/08/27 03:49:35;;;;;;;45.88;29.15;;;24.50;83.70;;;;;;5090159;28;20125;-67
2023/08/27 03:52:39;;;;;;;35.22;22.45;;;24.50;83.70;;;;;;5090295;28;20039;-67
2023/08/27 03:55:44;;;;;;;37.80;23.65;;;24.60;83.30;;;;;;5092490;28;20055;-67
2023/08/27 03:58:48;;;;;;;29.80;22.40;;;24.60;83.70;;;;;;5094296;28;20521;-68
2023/08/27 04:01:52;;;;;;;33.67;21.77;;;24.60;84.30;;;;;;5094173;28;20043;-67
2023/08/27 04:04:56;;;;;;;28.15;21.77;;;24.50;84.60;;;;;;5094830;28;20604;-68
2023/08/27 04:08:00;;;;;;;30.67;21.95;;;24.40;85.10;;;;;;5094308;28;20046;-69
2023/08/27 04:11:04;;;;;;;37.10;23.50;;;24.40;85.30;;;;;;5094596;28;20514;-68
2023/08/27 04:14:08;;;;;;;32.67;22.90;;;24.40;85.60;;;;;;5094490;28;20051;-67
2023/08/27 04:17:13;;;;;;;32.20;21.45;;;24.40;86.10;;;;;;5093798;28;20399;-66
2023/08/27 04:20:18;;;;;;;31.33;21.92;;;24.60;85.40;;;;;;5094508;28;20066;-67
2023/08/27 04:23:25;;;;;;;30.05;21.63;;;24.50;85.20;;;;;;5094577;28;20035;-68
2023/08/27 04:26:28;;;;;;;30.38;21.75;;;24.40;86.10;;;;;;5094810;28;20423;-69
2023/08/27 04:29:33;;;;;;;30.65;24.30;;;24.40;86.40;;;;;;5094015;28;20491;-68
2023/08/27 04:32:36;;;;;;;29.50;22.80;;;24.30;86.50;;;;;;5094799;28;20052;-68
2023/08/27 04:35:42;;;;;;;30.60;23.20;;;24.40;87.20;;;;;;5094649;28;20047;-67
2023/08/27 04:38:49;;;;;;;30.88;24.90;;;25.50;87.90;;;;;;5093698;28;20039;-68
2023/08/27 04:41:53;;;;;;;35.45;25.20;;;24.30;87.20;;;;;;5093851;28;20051;-68
2023/08/27 04:44:56;;;;;;;44.58;31.30;;;24.20;87.50;;;;;;5093661;28;20380;-67
2023/08/27 04:48:00;;;;;;;47.10;32.20;;;24.20;87.60;;;;;;5094649;28;20532;-68
2023/08/27 04:51:04;;;;;;;41.22;28.73;;;24.10;87.70;;;;;;5093670;28;20513;-68
2023/08/27 04:54:08;;;;;;;42.28;28.00;;;23.90;87.50;;;;;;5093685;28;20051;-68
2023/08/27 04:57:14;;;;;;;40.17;28.58;;;24.20;86.70;;;;;;5093747;28;20656;-68
2023/08/27 05:00:21;;;;;;;37.80;26.15;;;24.20;87.20;;;;;;5094588;28;20510;-68
2023/08/27 05:03:26;;;;;;;44.78;25.17;;;24.30;87.20;;;;;;5093978;28;20580;-69
2023/08/27 05:06:30;;;;;;;41.33;26.80;;;24.50;86.80;;;;;;5092508;28;20046;-67
2023/08/27 05:09:34;;;;;;;32.95;25.60;;;24.80;84.90;;;;;;5093391;28;20039;-67
2023/08/27 05:12:38;;;;;;;38.78;24.23;;;24.80;85.40;;;;;;5092679;28;20051;-68
2023/08/27 05:15:44;;;;;;;33.50;24.35;;;25.00;85.30;;;;;;5092743;28;20586;-68
2023/08/27 05:18:48;;;;;;;35.65;23.58;;;25.30;85.50;;;;;;5093337;28;20055;-67
2023/08/27 05:21:52;;;;;;;40.05;24.92;;;25.40;84.00;;;;;;5093548;28;20391;-68
2023/08/27 05:24:56;;;;;;;35.75;23.90;;;25.30;84.70;;;;;;5092728;28;20039;-67
2023/08/27 05:28:01;;;;;;;30.75;22.75;;;;;;;;;;5092088;28;20538;-68
2023/08/27 05:31:05;;;;;;;34.17;21.08;;;26.20;82.90;;;;;;5093567;28;20043;-69
2023/08/27 05:34:08;;;;;;;28.67;20.25;;;27.20;80.90;;;;;;5092673;28;20051;-69
2023/08/27 05:37:12;;;;;;;28.20;19.90;;;28.30;78.20;;;;;;5093423;28;20118;-68
2023/08/27 05:40:17;;;;;;;28.02;19.35;;;29.00;76.60;;;;;;5093363;28;20078;-68
2023/08/27 05:43:21;;;;;;;31.35;19.15;;;29.70;75.70;;;;;;5080845;28;20513;-69
2023/08/27 05:46:25;;;;;;;44.17;21.67;;;30.00;74.90;;;;;;5093080;28;20399;-69
2023/08/27 05:49:30;;;;;;;35.85;19.77;;;30.00;75.10;;;;;;5092351;28;20063;-69
2023/08/27 05:52:35;;;;;;;30.88;20.50;;;30.00;74.70;;;;;;5093704;28;20039;-69
2023/08/27 05:55:38;;;;;;;29.38;20.58;;;29.40;75.20;;;;;;5093221;28;20043;-69
2023/08/27 05:58:43;;;;;;;31.75;21.10;;;28.60;77.70;;;;;;5092719;28;20050;-69
2023/08/27 06:01:47;;;;;;;30.40;21.08;;;28.60;77.90;;;;;;5092032;28;20043;-69
2023/08/27 06:04:51;;;;;;;26.58;19.42;;;28.80;78.10;;;;;;5092317;28;20047;-69
2023/08/27 06:07:55;;;;;;;28.90;19.27;;;28.80;77.90;;;;;;5091698;28;20396;-69
2023/08/27 06:10:58;;;;;;;29.15;19.30;;;29.00;77.30;;;;;;5091891;28;20043;-68
2023/08/27 06:14:02;;;;;;;27.17;20.15;;;29.20;76.70;;;;;;5091504;28;20467;-68
2023/08/27 06:17:06;;;;;;;32.85;20.63;;;29.40;76.50;;;;;;5091041;28;20050;-69
2023/08/27 06:20:14;;;;;;;27.80;19.55;;;29.20;76.50;;;;;;5091220;28;20039;-69
2023/08/27 06:23:18;;;;;;;24.90;19.52;;;29.10;77.50;;;;;;5091677;28;20035;-68
2023/08/27 06:26:22;;;;;;;33.25;20.55;;;29.40;77.30;;;;;;5091322;28;20043;-67
2023/08/27 06:29:26;;;;;;;32.17;20.30;;;29.50;77.00;;;;;;5091600;28;20055;-68
2023/08/27 06:32:30;;;;;;;31.75;21.40;;;29.40;76.90;;;;;;5091387;28;20047;-69
2023/08/27 06:35:35;;;;;;;34.80;22.80;;;29.40;77.30;;;;;;5091723;28;20396;-69
2023/08/27 06:38:39;;;;;;;35.03;21.60;;;29.10;78.10;;;;;;5092060;28;20050;-71
2023/08/27 06:41:43;;;;;;;42.90;23.38;;;29.30;78.70;;;;;;5091336;28;20039;-69
2023/08/27 06:44:51;;;;;;;33.55;24.25;;;29.80;77.10;;;;;;5091149;28;20043;-68
2023/08/27 06:47:55;;;;;;;46.20;24.23;;;30.00;76.50;;;;;;5091610;28;20534;-69
2023/08/27 06:51:02;;;;;;;43.15;22.55;;;29.90;76.80;;;;;;5091268;28;20384;-68
2023/08/27 06:54:08;;;;;;;42.22;22.83;;;30.20;76.70;;;;;;5079751;28;20051;-68
2023/08/27 06:57:12;;;;;;;46.22;23.77;;;30.50;75.50;;;;;;5091361;28;20059;-69
2023/08/27 07:00:17;;;;;;;37.03;22.13;;;30.60;76.00;;;;;;5090893;28;20043;-69
2023/08/27 07:03:22;;;;;;;39.35;21.05;;;31.00;75.60;;;;;;5091508;28;20058;-70
2023/08/27 07:06:26;;;;;;;40.60;20.05;;;31.40;74.70;;;;;;5092649;28;20043;-69
2023/08/27 07:09:30;;;;;;;38.13;21.38;;;31.90;74.40;;;;;;5092008;28;20110;-68
2023/08/27 07:12:36;;;;;;;28.35;18.85;;;32.20;73.20;;;;;;5091056;28;20032;-68
2023/08/27 07:15:43;;;;;;;26.63;18.75;;;32.50;73.10;;;;;;5091332;28;20376;-73
2023/08/27 07:18:47;;;;;;;27.67;18.50;;;32.90;72.70;;;;;;5091154;28;20047;-69
2023/08/27 07:21:51;;;;;;;26.58;17.50;;;33.10;72.30;;;;;;5091434;28;20035;-69
2023/08/27 07:24:55;;;;;;;29.30;15.73;;;33.30;73.00;;;;;;5090778;28;20039;-67
2023/08/27 07:27:59;;;;;;;26.70;16.48;;;33.40;72.70;;;;;;5090855;28;20067;-68
2023/08/27 07:31:04;;;;;;;31.38;15.68;;;33.50;73.10;;;;;;5097658;28;20039;-68
2023/08/27 07:34:10;;;;;;;18.77;12.95;;;33.60;73.00;;;;;;5098259;28;20063;-68
2023/08/27 07:37:14;;;;;;;20.05;14.18;;;33.90;73.20;;;;;;5097902;28;20502;-69
2023/08/27 07:40:18;;;;;;;17.95;14.27;;;34.00;72.80;;;;;;5097819;28;20051;-69
2023/08/27 07:43:24;;;;;;;18.83;13.43;;;34.00;72.60;;;;;;5100508;28;20395;-69
2023/08/27 07:46:29;;;;;;;26.88;14.43;;;34.00;72.10;;;;;;5098241;28;20047;-69
2023/08/27 07:49:33;;;;;;;22.90;14.23;;;34.10;71.40;;;;;;5097098;28;20051;-69
2023/08/27 07:52:40;;;;;;;18.70;14.75;;;33.90;71.40;;;;;;5085291;28;20389;-68
2023/08/27 07:55:44;;;;;;;15.05;12.80;;;33.70;71.40;;;;;;5097010;28;20043;-70
2023/08/27 07:58:48;;;;;;;20.52;13.02;;;34.30;71.40;;;;;;5097666;28;20047;-70
2023/08/27 08:01:52;;;;;;;17.27;13.07;;;35.30;69.90;;;;;;5097684;28;20581;-69
2023/08/27 08:04:56;;;;;;;21.27;12.88;;;36.30;67.40;;;;;;5096981;28;20136;-68
2023/08/27 08:08:00;;;;;;;19.05;12.85;;;37.00;66.30;;;;;;5096646;28;20071;-67
2023/08/27 08:11:04;;;;;;;23.33;13.90;;;37.30;65.80;;;;;;5098725;28;20035;-68
2023/08/27 08:14:08;;;;;;;16.65;13.50;;;37.40;65.00;;;;;;5098820;28;20047;-68
2023/08/27 08:17:12;;;;;;;22.85;13.52;;;37.40;64.80;;;;;;5098512;28;20039;-69
2023/08/27 08:20:15;;;;;;;24.52;13.30;;;37.60;65.10;;;;;;5096632;28;20039;-68
2023/08/27 08:23:20;;;;;;;19.00;14.38;;;38.00;64.50;;;;;;5097471;28;20043;-68
2023/08/27 08:26:24;;;;;;;17.75;13.95;;;38.10;64.40;;;;;;5097524;28;20043;-70
2023/08/27 08:29:28;;;;;;;23.58;14.70;;;38.20;64.00;;;;;;5097473;28;20499;-68
2023/08/27 08:32:32;;;;;;;25.25;16.15;;;38.40;63.20;;;;;;5096158;28;20039;-68
2023/08/27 08:35:37;;;;;;;20.55;15.07;;;37.50;64.40;;;;;;5097095;28;20043;-68
2023/08/27 08:38:41;;;;;;;22.90;14.55;;;36.70;65.90;;;;;;5097369;28;20047;-68
2023/08/27 08:42:11;;;;;;;22.58;15.15;;;36.30;66.60;;;;;;5093434;28;20039;-68
2023/08/27 08:45:25;;;;;;;;;;;35.70;66.20;;;;;;5094626;28;20051;-68
2023/08/27 08:48:31;;;;;;;16.55;14.48;;;35.30;67.30;;;;;;5093726;28;20431;-70
2023/08/27 08:51:35;;;;;;;19.08;14.25;;;35.30;68.20;;;;;;5093786;28;20043;-68
2023/08/27 08:54:40;;;;;;;17.80;13.32;;;35.40;67.50;;;;;;5093791;28;20047;-69
2023/08/27 08:57:49;;;;;;;18.73;13.90;;;35.30;68.20;;;;;;5092910;28;20039;-69
2023/08/27 09:00:55;;;;;;;15.95;12.13;;;35.20;67.40;;;;;;5093599;28;20423;-68
2023/08/27 09:04:01;;;;;;;22.17;14.25;;;35.20;67.70;;;;;;5093749;28;20118;-67
2023/08/27 09:07:05;;;;;;;21.73;14.48;;;35.20;66.20;;;;;;5093988;28;20039;-69
2023/08/27 09:10:11;;;;;;;24.13;14.60;;;34.90;66.30;;;;;;5094242;28;20067;-69
2023/08/27 09:13:20;;;;;;;22.35;14.82;;;34.60;66.60;;;;;;5094611;28;20043;-68
2023/08/27 09:16:27;;;;;;;20.48;14.35;;;34.40;67.50;;;;;;5093780;28;20059;-69
2023/08/27 09:19:31;;;;;;;14.23;12.82;;;34.30;66.40;;;;;;5093492;28;20047;-68
2023/08/27 09:22:35;;;;;;;19.20;14.35;;;34.00;67.70;;;;;;5093603;28;20385;-67
2023/08/27 09:25:40;;;;;;;25.60;15.85;;;34.30;67.40;;;;;;5093400;28;20039;-69
2023/08/27 09:28:44;;;;;;;20.02;14.77;;;34.10;66.80;;;;;;5093527;28;20047;-67
2023/08/27 09:31:48;;;;;;;26.63;15.50;;;33.70;67.60;;;;;;5092367;28;20047;-69
2023/08/27 09:35:01;;;;;;;31.02;15.32;;;33.80;67.70;;;;;;5093029;28;20054;-68
2023/08/27 09:38:06;;;;;;;20.55;15.60;;;33.90;66.90;;;;;;5092862;28;20043;-72
2023/08/27 09:41:17;;;;;;;18.73;14.73;;;33.80;67.50;;;;;;5094180;28;20047;-68
2023/08/27 09:44:25;;;;;;;20.60;16.02;;;33.80;67.50;;;;;;5093706;28;20047;-68
2023/08/27 09:47:33;;;;;;;19.70;15.73;;;33.80;68.30;;;;;;5092988;28;20051;-69
2023/08/27 09:50:37;;;;;;;25.30;15.70;;;33.80;68.40;;;;;;5092683;28;20043;-68
2023/08/27 09:53:41;;;;;;;22.98;16.30;;;34.00;68.50;;;;;;5091874;28;20043;-68
2023/08/27 09:56:47;;;;;;;30.30;17.02;;;34.30;68.40;;;;;;5092918;28;20043;-67
2023/08/27 09:59:52;;;;;;;24.20;17.40;;;34.40;68.20;;;;;;5092834;28;20035;-68
2023/08/27 10:02:56;;;;;;;24.95;17.27;;;34.50;67.90;;;;;;5093223;28;20055;-68
2023/08/27 10:06:04;;;;;;;21.83;18.30;;;34.60;68.30;;;;;;5093241;28;20185;-68
2023/08/27 10:09:08;;;;;;;25.17;17.73;;;34.80;68.40;;;;;;5093028;28;20043;-67
2023/08/27 10:12:13;;;;;;;23.80;17.73;;;34.80;68.40;;;;;;5092151;28;20047;-70
2023/08/27 10:15:18;;;;;;;25.80;17.77;;;35.00;68.70;;;;;;5092561;28;20043;-67
2023/08/27 10:18:22;;;;;;;18.42;16.48;;;35.20;68.30;;;;;;5092163;28;20059;-67
2023/08/27 10:21:27;;;;;;;22.23;18.02;;;35.30;67.90;;;;;;5093013;28;20043;-68
2023/08/27 10:24:31;;;;;;;20.67;15.75;;;35.30;67.20;;;;;;5092733;28;20047;-67
2023/08/27 10:27:37;;;;;;;19.73;16.70;;;35.20;67.60;;;;;;5092288;28;20051;-69
2023/08/27 10:30:44;;;;;;;25.77;17.30;;;35.30;68.30;;;;;;5091819;28;20499;-69
2023/08/27 10:33:49;;;;;;;19.58;16.63;;;35.40;68.50;;;;;;5091677;28;20402;-69
2023/08/27 10:36:58;;;;;;;29.30;17.30;;;35.60;68.10;;;;;;5092184;28;20383;-67
2023/08/27 10:40:08;;;;;;;23.48;17.35;;;35.60;68.00;;;;;;5091788;28;20039;-68
2023/08/27 10:43:20;;;;;;;28.90;16.67;;;35.70;67.50;;;;;;5091842;28;20039;-69
2023/08/27 10:46:24;;;;;;;22.67;17.08;;;35.70;67.90;;;;;;5091732;28;20039;-69
2023/08/27 10:49:36;;;;;;;22.33;16.85;;;35.80;67.60;;;;;;5090802;28;20071;-69
2023/08/27 10:52:50;;;;;;;24.15;18.88;;;35.80;67.20;;;;;;5091675;28;20039;-68
2023/08/27 10:55:55;;;;;;;23.33;18.25;;;35.80;66.60;;;;;;5092109;28;20067;-68
2023/08/27 10:59:03;;;;;;;22.90;17.67;;;35.80;66.60;;;;;;5091555;28;20051;-69
2023/08/27 11:02:08;;;;;;;19.52;14.25;;;35.80;66.60;;;;;;5091998;28;20051;-69
2023/08/27 11:05:13;;;;;;;14.30;12.80;;;35.80;66.10;;;;;;5091464;28;20035;-69
2023/08/27 11:08:37;;;;;;;16.17;14.10;;;35.80;65.80;;;;;;5090136;28;20051;-69
2023/08/27 11:11:53;;;;;;;19.52;12.70;;;35.80;65.50;;;;;;5091474;28;20906;-67
2023/08/27 11:15:13;;;;;;;14.85;11.80;;;35.60;65.90;;;;;;5091599;28;20075;-68
2023/08/27 11:18:23;;;;;;;19.37;13.13;;;35.60;65.60;;;;;;5091507;28;20391;-69
2023/08/27 11:21:26;;;;;;;15.80;12.32;;;35.60;64.30;;;;;;5091439;28;20138;-70
2023/08/27 11:24:31;;;;;;;15.20;12.23;;;35.60;64.60;;;;;;5091291;28;20039;-69
2023/08/27 11:27:35;;;;;;;14.30;12.13;;;35.40;64.40;;;;;;5090922;28;20047;-68
2023/08/27 11:30:39;;;;;;;13.35;11.93;;;35.40;64.90;;;;;;5090953;28;20043;-68
2023/08/27 11:33:45;;;;;;;13.90;12.10;;;35.40;65.10;;;;;;5090870;28;20051;-68
2023/08/27 11:36:49;;;;;;;12.85;10.55;;;35.40;64.90;;;;;;5091059;28;20391;-69
2023/08/27 11:39:52;;;;;;;16.80;11.52;;;35.40;63.20;;;;;;5090997;28;20047;-70
2023/08/27 11:42:57;;;;;;;14.90;10.15;;;35.40;62.40;;;;;;5091267;28;20039;-69
2023/08/27 11:46:00;;;;;;;11.40;9.70;;;35.30;60.30;;;;;;5090263;28;20403;-69
2023/08/27 11:49:05;;;;;;;11.18;8.98;;;35.30;61.30;;;;;;5090833;28;20404;-69
2023/08/27 11:52:11;;;;;;;10.65;8.10;;;35.30;60.90;;;;;;5090517;28;20043;-69
2023/08/27 11:55:21;;;;;;;21.33;9.60;;;35.40;60.00;;;;;;5090995;28;20043;-69
2023/08/27 11:58:28;;;;;;;10.30;8.55;;;35.40;58.50;;;;;;5090815;28;20047;-69
2023/08/27 12:01:33;;;;;;;9.82;8.43;;;35.40;59.50;;;;;;5091328;28;20047;-68
2023/08/27 12:04:37;;;;;;;11.38;8.18;;;35.40;59.40;;;;;;5090984;28;20043;-68
2023/08/27 12:07:42;;;;;;;11.25;8.25;;;35.50;59.90;;;;;;5090961;28;20051;-68
2023/08/27 12:10:46;;;;;;;9.30;8.00;;;35.50;58.10;;;;;;5091259;28;20376;-69
2023/08/27 12:13:53;;;;;;;9.57;8.35;;;35.40;58.50;;;;;;5091396;28;20467;-68
2023/08/27 12:17:09;;;;;;;9.32;8.43;;;35.40;58.40;;;;;;5094866;28;20047;-69
2023/08/27 12:20:13;;;;;;;10.82;8.50;;;35.40;58.80;;;;;;5096769;28;20043;-69
2023/08/27 12:23:17;;;;;;;10.77;8.30;;;35.40;59.30;;;;;;5095136;28;20039;-69
2023/08/27 12:26:22;;;;;;;10.05;9.13;;;35.50;59.40;;;;;;5093465;28;20142;-69
2023/08/27 12:29:29;;;;;;;13.57;9.65;;;35.50;59.20;;;;;;5094304;28;20515;-67
2023/08/27 12:32:34;;;;;;;16.95;11.73;;;35.50;58.50;;;;;;5094388;28;20391;-68
2023/08/27 12:35:38;;;;;;;18.30;11.70;;;35.50;58.40;;;;;;5094233;28;20051;-69
2023/08/27 12:38:42;;;;;;;15.18;11.10;;;35.50;55.80;;;;;;5094309;28;20051;-69
2023/08/27 12:41:45;;;;;;;13.00;11.57;;;35.50;55.30;;;;;;5093611;28;20063;-70
2023/08/27 12:44:49;;;;;;;14.98;10.73;;;35.50;56.00;;;;;;5093527;28;20058;-76
2023/08/27 12:47:53;;;;;;;19.98;12.00;;;35.40;57.20;;;;;;5093255;28;20075;-69
2023/08/27 12:50:57;;;;;;;13.68;11.10;;;35.40;57.20;;;;;;5093232;28;20035;-71
2023/08/27 12:54:01;;;;;;;16.25;10.75;;;35.40;56.20;;;;;;5094214;28;20055;-68
2023/08/27 12:57:06;;;;;;;11.23;9.73;;;35.40;56.20;;;;;;5094020;28;20054;-69
2023/08/27 13:00:10;;;;;;;18.10;10.85;;;35.40;56.50;;;;;;5094237;28;20043;-68
2023/08/27 13:03:14;;;;;;;11.27;8.88;;;35.40;55.60;;;;;;5093946;28;20552;-69
2023/08/27 13:06:20;;;;;;;10.55;8.55;;;35.40;55.60;;;;;;5093978;28;20525;-69
2023/08/27 13:09:24;;;;;;;14.30;11.35;;;35.40;56.20;;;;;;5093553;28;20051;-72
2023/08/27 13:12:27;;;;;;;15.50;13.80;;;35.30;54.00;;;;;;5092949;28;20043;-69
2023/08/27 13:15:31;;;;;;;16.05;13.13;;;35.30;54.90;;;;;;5093769;28;20042;-69
2023/08/27 13:18:35;;;;;;;15.63;11.23;;;35.30;55.90;;;;;;5093851;28;20047;-69
2023/08/27 13:21:41;;;;;;;18.75;10.88;;;35.30;56.40;;;;;;5093543;28;20047;-68
2023/08/27 13:24:45;;;;;;;11.50;10.27;;;35.30;56.30;;;;;;5092752;28;20043;-69
2023/08/27 13:27:48;;;;;;;15.48;11.00;;;35.30;56.80;;;;;;5093397;28;20050;-68
2023/08/27 13:30:53;;;;;;;12.15;9.57;;;35.30;57.50;;;;;;5093769;28;20114;-69
2023/08/27 13:33:58;;;;;;;10.57;9.48;;;35.20;57.20;;;;;;5093575;28;20431;-68
2023/08/27 13:37:02;;;;;;;11.75;8.90;;;35.10;56.80;;;;;;5093645;28;20047;-68
2023/08/27 13:40:06;;;;;;;13.57;9.85;;;35.00;55.70;;;;;;5093790;28;20110;-68
2023/08/27 13:43:10;;;;;;;17.05;9.52;;;35.00;56.30;;;;;;5093579;28;20051;-68
2023/08/27 13:46:14;;;;;;;14.50;9.95;;;35.00;56.30;;;;;;5092371;28;20047;-69
2023/08/27 13:49:18;;;;;;;13.63;10.18;;;35.00;56.60;;;;;;5092600;28;20050;-69
2023/08/27 13:52:22;;;;;;;15.98;10.25;;;35.00;56.80;;;;;;5093148;28;20493;-69
2023/08/27 13:55:26;;;;;;;13.13;10.40;;;35.00;55.60;;;;;;5092470;28;20039;-68
2023/08/27 13:58:30;;;;;;;15.15;9.95;;;35.10;56.40;;;;;;5093122;28;20494;-68
2023/08/27 14:01:34;;;;;;;16.55;9.30;;;35.00;56.50;;;;;;5092874;28;20047;-70
2023/08/27 14:04:38;;;;;;;19.15;12.60;;;35.10;55.60;;;;;;5092972;28;20051;-68
2023/08/27 14:07:43;;;;;;;14.05;9.73;;;35.90;54.50;;;;;;5092337;28;20038;-68
2023/08/27 14:10:47;;;;;;;18.38;7.53;;;37.00;53.50;;;;;;5092837;28;20047;-67
2023/08/27 14:13:51;;;;;;;16.67;7.47;;;37.70;52.60;;;;;;5092602;28;20055;-69
2023/08/27 14:16:55;;;;;;;10.75;7.05;;;38.40;52.10;;;;;;5092640;28;20039;-68
2023/08/27 14:19:59;;;;;;;30.35;9.35;;;38.80;50.90;;;;;;5092427;28;20043;-68
2023/08/27 14:23:03;;;;;;;15.65;7.97;;;38.90;48.30;;;;;;5092132;28;20039;-68
2023/08/27 14:26:07;;;;;;;19.13;7.93;;;38.90;49.00;;;;;;5092719;28;20502;-68
2023/08/27 14:29:11;;;;;;;11.30;7.82;;;39.10;48.70;;;;;;5091880;28;20047;-68
2023/08/27 14:32:15;;;;;;;15.38;8.93;;;39.20;49.00;;;;;;5092191;28;20047;-68
2023/08/27 14:35:19;;;;;;;22.58;13.82;;;39.10;49.80;;;;;;5091993;28;20067;-68
2023/08/27 14:38:23;;;;;;;18.83;11.68;;;39.00;49.80;;;;;;5091216;28;20495;-68
2023/08/27 14:41:28;;;;;;;22.40;12.60;;;39.00;49.80;;;;;;5092256;28;20043;-68
2023/08/27 14:44:34;;;;;;;23.20;12.57;;;39.00;50.80;;;;;;5092208;28;20519;-68
2023/08/27 14:47:39;;;;;;;13.77;8.95;;;39.10;51.30;;;;;;5092019;28;20046;-69
2023/08/27 14:50:43;;;;;;;17.55;9.23;;;38.90;49.60;;;;;;5091892;28;20055;-70
2023/08/27 14:53:47;;;;;;;15.93;10.32;;;38.50;50.70;;;;;;5092027;28;20506;-70
2023/08/27 14:56:52;;;;;;;17.65;11.50;;;38.00;51.50;;;;;;5091183;28;20540;-68
2023/08/27 14:59:58;;;;;;;14.27;11.05;;;37.30;53.10;;;;;;5091134;28;20518;-71
2023/08/27 15:03:05;;;;;;;18.45;11.02;;;36.90;54.30;;;;;;5091602;28;20043;-68
2023/08/27 15:06:09;;;;;;;11.85;9.68;;;36.50;54.70;;;;;;5091677;28;20059;-68
2023/08/27 15:09:13;;;;;;;19.50;10.02;;;36.20;55.40;;;;;;5091258;28;20129;-68
2023/08/27 15:12:19;;;;;;;15.63;9.48;;;35.90;56.00;;;;;;5091713;28;20043;-67
2023/08/27 15:15:23;;;;;;;13.13;8.82;;;35.70;55.50;;;;;;5090883;28;20062;-69
2023/08/27 15:18:26;;;;;;;9.93;8.50;;;36.20;55.20;;;;;;5091345;28;20043;-68
2023/08/27 15:21:31;;;;;;;14.52;8.57;;;37.30;55.00;;;;;;5091236;28;20043;-69
2023/08/27 15:24:35;;;;;;;13.02;9.00;;;38.10;54.40;;;;;;5090463;28;20043;-69
2023/08/27 15:27:39;;;;;;;22.63;11.38;;;37.60;54.90;;;;;;5090488;28;20047;-68
2023/08/27 15:30:43;;;;;;;17.20;11.55;;;37.10;56.60;;;;;;5091362;28;20047;-69
2023/08/27 15:33:46;;;;;;;15.75;11.13;;;36.60;57.40;;;;;;5091008;28;20070;-69
2023/08/27 15:36:50;;;;;;;13.82;11.65;;;36.20;58.30;;;;;;5091749;28;20043;-68
2023/08/27 15:39:57;;;;;;;20.83;12.13;;;35.90;59.60;;;;;;5091188;28;20046;-69
2023/08/27 15:43:32;;;;;;;16.23;12.32;;;35.60;60.50;;;;;;5090424;28;20040;-68